Time;durP1;ratioP1;P1;durP2;ratioP2;P2;SDS_P1;SDS_P2;PMS_P1;PMS_P2;Temp;Humidity;BMP_temperature;BMP_pressure;BME280_temperature;BME280_humidity;BME280_pressure;Samples;Min_cycle;Max_cycle;Signal;HPM_P1;HPM_P2
2024/04/14 00:01:06;;;;;;;9.50;7.37;;;14.30;99.90;;;14.45;82.19;99367.03;5371063;26;20472;-75
2024/04/14 00:03:32;;;;;;;9.70;7.30;;;14.20;99.90;;;14.44;81.97;99365.34;5367880;26;20295;-76
2024/04/14 00:05:58;;;;;;;8.60;6.87;;;14.20;99.90;;;14.43;81.52;99358.41;5362121;26;20460;-76
2024/04/14 00:08:24;;;;;;;9.50;6.80;;;14.20;99.90;;;14.43;81.74;99358.41;5363659;26;20478;-77
2024/04/14 00:10:50;;;;;;;8.80;6.87;;;14.90;99.90;;;14.47;81.46;99354.50;5365555;26;20579;-76
2024/04/14 00:13:16;;;;;;;9.03;6.60;;;14.20;99.90;;;14.45;81.27;99357.31;5377127;26;20487;-77
2024/04/14 00:15:42;;;;;;;11.13;7.67;;;14.10;99.90;;;14.43;80.83;99355.75;5370004;26;20340;-76
2024/04/14 00:18:08;;;;;;;11.17;7.60;;;14.20;99.90;;;14.43;81.06;99355.75;5368863;26;20776;-74
2024/04/14 00:20:35;;;;;;;8.50;6.63;;;14.10;99.90;;;14.38;81.17;99356.16;5370185;26;20364;-78
2024/04/14 00:23:03;;;;;;;12.20;7.00;;;14.10;99.90;;;14.33;81.19;99356.56;5380424;26;20254;-77
2024/04/14 00:25:29;;;;;;;9.33;6.97;;;14.10;99.90;;;14.31;81.83;99350.59;5371027;26;20507;-76
2024/04/14 00:27:55;;;;;;;10.60;7.27;;;14.10;99.90;;;14.28;81.44;99347.34;5377590;26;20491;-75
2024/04/14 00:30:21;;;;;;;11.27;7.27;;;14.10;99.90;;;14.21;81.79;99346.19;5374484;26;20251;-75
2024/04/14 00:32:47;;;;;;;9.13;7.00;;;14.00;99.90;;;14.24;81.72;99352.06;5356296;26;20245;-76
2024/04/14 00:35:13;;;;;;;10.07;7.17;;;14.00;99.90;;;14.22;81.50;99346.09;5370300;26;20294;-75
2024/04/14 00:37:39;;;;;;;7.77;6.70;;;14.00;99.90;;;14.22;81.17;99345.22;5333936;26;20567;-76
2024/04/14 00:40:05;;;;;;;8.40;6.80;;;14.00;99.90;;;14.17;81.27;99340.34;5374974;26;20463;-76
2024/04/14 00:42:31;;;;;;;9.60;7.10;;;13.90;99.90;;;14.14;82.07;99341.44;5372843;26;20307;-76
2024/04/14 00:44:57;;;;;;;10.80;7.77;;;13.90;99.90;;;14.11;81.65;99341.72;5363059;26;20564;-72
2024/04/14 00:47:22;;;;;;;9.80;7.27;;;13.90;99.90;;;14.12;81.55;99337.25;5364344;26;20263;-76
2024/04/14 00:49:48;;;;;;;10.73;7.37;;;13.90;99.90;;;14.10;81.36;99344.50;5367216;26;20248;-75
2024/04/14 00:52:15;;;;;;;11.93;8.30;;;13.90;99.90;;;14.06;81.33;99337.78;5364733;26;20258;-77
2024/04/14 00:54:41;;;;;;;11.63;8.30;;;13.80;99.90;;;14.04;81.43;99332.66;5371249;26;20474;-76
2024/04/14 00:57:08;;;;;;;15.93;9.73;;;13.80;99.90;;;14.01;81.78;99332.91;5363331;26;20536;-78
2024/04/14 00:59:35;;;;;;;13.67;9.23;;;13.80;99.90;;;13.94;82.51;99331.75;5364112;26;20244;-77
2024/04/14 01:02:01;;;;;;;12.83;9.30;;;13.80;99.90;;;13.86;82.32;99337.69;5367458;26;20486;-78
2024/04/14 01:04:27;;;;;;;11.27;8.73;;;13.70;99.90;;;13.87;82.26;99335.88;5373250;26;20507;-73
2024/04/14 01:06:55;;;;;;;12.63;9.43;;;13.70;99.90;;;13.87;82.40;99335.88;5343923;26;20268;-78
2024/04/14 01:09:21;;;;;;;14.93;9.10;;;13.70;99.90;;;13.83;82.31;99340.56;5366605;26;20967;-77
2024/04/14 01:11:50;;;;;;;13.27;9.60;;;13.70;99.90;;;13.79;82.67;99335.69;5368954;26;20539;-76
2024/04/14 01:14:17;;;;;;;20.47;9.23;;;13.60;99.90;;;13.76;82.52;99334.16;5377267;26;20527;-78
2024/04/14 01:16:43;;;;;;;18.80;10.80;;;13.60;99.90;;;13.74;82.47;99337.88;5359843;26;20486;-77
2024/04/14 01:19:08;;;;;;;15.77;11.23;;;13.60;99.90;;;13.72;82.45;99337.19;5374287;26;20522;-78
2024/04/14 01:21:37;;;;;;;12.80;10.00;;;13.50;99.90;;;13.74;82.32;99341.34;5343782;26;20277;-77
2024/04/14 01:24:03;;;;;;;13.63;9.90;;;13.50;99.90;;;13.71;82.24;99338.97;5337737;26;20237;-77
2024/04/14 01:26:29;;;;;;;13.87;9.60;;;13.50;99.90;;;13.71;82.57;99336.31;5356321;26;20620;-74
2024/04/14 01:28:55;;;;;;;13.60;9.90;;;13.50;99.90;;;13.66;82.45;99334.09;5377535;26;20544;-77
2024/04/14 01:31:21;;;;;;;12.83;8.70;;;13.50;99.90;;;13.65;82.29;99331.56;5364047;26;20299;-76
2024/04/14 01:33:46;;;;;;;9.40;7.90;;;13.40;99.90;;;13.63;82.76;99326.44;5368444;26;20295;-77
2024/04/14 01:36:12;;;;;;;10.20;7.93;;;13.40;99.90;;;13.64;83.21;99337.81;5368938;26;20240;-76
2024/04/14 01:38:38;;;;;;;10.57;7.80;;;13.40;99.90;;;13.58;82.65;99331.25;5368020;26;20256;-77
2024/04/14 01:41:04;;;;;;;9.53;6.80;;;13.40;99.90;;;13.60;82.98;99339.88;5377030;26;20353;-78
2024/04/14 01:43:30;;;;;;;8.03;6.63;;;13.40;99.90;;;13.57;83.01;99334.88;5338801;26;20248;-74
2024/04/14 01:45:58;;;;;;;10.57;7.03;;;13.40;99.90;;;13.51;83.35;99332.72;5397439;26;20304;-78
2024/04/14 01:48:23;;;;;;;7.33;5.83;;;13.40;99.90;;;13.51;84.04;99334.53;5375388;26;20527;-76
2024/04/14 01:50:49;;;;;;;8.70;5.50;;;13.30;99.90;;;13.53;83.88;99325.53;5362011;26;20482;-77
2024/04/14 01:53:16;;;;;;;8.23;6.60;;;13.30;99.90;;;13.54;84.14;99327.19;5373605;26;20288;-77
2024/04/14 01:55:47;;;;;;;8.77;6.80;;;13.30;99.90;;;13.51;83.47;99326.63;5363081;26;20255;-76
2024/04/14 01:58:12;;;;;;;8.23;6.40;;;13.30;99.90;;;13.52;83.54;99320.38;5369600;26;20579;-79
2024/04/14 02:00:38;;;;;;;9.00;6.17;;;13.30;99.90;;;13.52;83.54;99328.28;5360303;26;20546;-76
2024/04/14 02:03:04;;;;;;;8.60;7.13;;;13.30;99.90;;;13.43;83.18;99332.56;5373391;26;20275;-76
2024/04/14 02:05:30;;;;;;;11.97;7.30;;;13.20;99.90;;;13.42;83.42;99328.22;5371398;26;20240;-77
2024/04/14 02:07:56;;;;;;;11.60;7.07;;;13.20;99.90;;;13.38;83.64;99335.56;5364093;26;20583;-77
2024/04/14 02:10:21;;;;;;;8.43;6.67;;;13.20;99.90;;;13.38;83.60;99332.91;5374038;26;20244;-75
2024/04/14 02:12:47;;;;;;;9.10;7.03;;;13.20;99.90;;;13.38;83.99;99327.63;5373622;26;20287;-74
2024/04/14 02:15:13;;;;;;;9.80;6.40;;;13.20;99.90;;;13.42;84.01;99338.78;5367814;26;20247;-76
2024/04/14 02:17:39;;;;;;;9.20;6.60;;;13.20;99.90;;;13.39;83.33;99337.22;5357027;26;20290;-76
2024/04/14 02:20:06;;;;;;;9.97;7.53;;;13.10;99.90;;;13.36;83.30;99337.47;5342857;26;20486;-77
2024/04/14 02:22:31;;;;;;;10.13;7.63;;;13.10;99.90;;;13.31;83.25;99337.03;5378558;26;21057;-78
2024/04/14 02:24:57;;;;;;;11.53;7.40;;;13.10;99.90;;;13.30;83.18;99340.63;5348032;26;20464;-73
2024/04/14 02:27:25;;;;;;;10.40;8.10;;;13.10;99.90;;;13.29;83.48;99346.03;5372598;26;20271;-77
2024/04/14 02:29:51;;;;;;;8.70;7.37;;;13.10;99.90;;;13.23;83.90;99336.78;5366881;26;21405;-78
2024/04/14 02:32:17;;;;;;;11.13;8.07;;;13.10;99.90;;;13.26;83.95;99336.56;5337629;26;20482;-74
2024/04/14 02:34:43;;;;;;;11.40;7.67;;;13.00;99.90;;;13.15;84.27;99340.06;5378942;26;20456;-78
2024/04/14 02:37:09;;;;;;;12.37;7.97;;;13.00;99.90;;;13.06;84.38;99345.25;5369734;26;20244;-76
2024/04/14 02:39:35;;;;;;;12.83;8.27;;;13.00;99.90;;;13.01;84.76;99348.25;5370866;26;20248;-75
2024/04/14 02:42:00;;;;;;;12.63;8.70;;;12.90;99.90;;;13.01;85.15;99342.16;5371617;26;20241;-78
2024/04/14 02:44:26;;;;;;;12.00;9.40;;;12.90;99.90;;;13.03;85.65;99346.34;5378282;26;20540;-77
2024/04/14 02:46:52;;;;;;;11.77;8.40;;;12.90;99.90;;;13.05;85.36;99335.66;5378050;26;20252;-77
2024/04/14 02:49:17;;;;;;;9.67;8.17;;;12.90;99.90;;;13.03;85.46;99346.34;5371028;26;20249;-77
2024/04/14 02:51:44;;;;;;;11.70;8.60;;;12.90;99.90;;;12.98;84.80;99353.78;5374990;26;20244;-76
2024/04/14 02:54:10;;;;;;;10.77;7.60;;;12.90;99.90;;;12.94;84.86;99347.91;5379705;26;20242;-75
2024/04/14 02:56:36;;;;;;;12.67;8.60;;;12.90;99.90;;;12.90;84.35;99354.41;5341860;26;20824;-77
2024/04/14 02:59:02;;;;;;;13.77;7.80;;;12.80;99.90;;;12.85;85.04;99359.19;5363797;26;20475;-76
2024/04/14 03:01:28;;;;;;;8.93;7.27;;;12.80;99.90;;;12.86;85.50;99357.41;5374146;26;20554;-77
2024/04/14 03:03:54;;;;;;;10.30;6.87;;;12.80;99.90;;;12.85;85.06;99359.19;5376398;26;20486;-77
2024/04/14 03:06:20;;;;;;;9.80;6.90;;;12.80;99.90;;;12.87;85.78;99357.28;5375192;26;20530;-79
2024/04/14 03:08:45;;;;;;;9.03;6.67;;;12.70;99.90;;;12.89;85.51;99358.00;5375840;26;20248;-78
2024/04/14 03:11:11;;;;;;;8.40;6.63;;;12.70;99.90;;;12.84;85.01;99356.69;5369405;26;20936;-77
2024/04/14 03:13:37;;;;;;;9.53;6.17;;;12.70;99.90;;;12.86;84.95;99360.91;5375028;26;20291;-73
2024/04/14 03:16:04;;;;;;;9.77;6.87;;;12.70;99.90;;;12.83;85.50;99357.63;5364201;26;20245;-77
2024/04/14 03:18:30;;;;;;;9.70;6.70;;;12.70;99.90;;;12.78;85.48;99352.75;5369500;26;20334;-77
2024/04/14 03:21:01;;;;;;;8.33;6.57;;;12.70;99.90;;;12.80;85.42;99356.13;5377996;26;22130;-78
2024/04/14 03:23:27;;;;;;;9.70;6.00;;;12.70;99.90;;;12.86;85.37;99360.91;5380049;26;20466;-77
2024/04/14 03:25:54;;;;;;;8.17;6.13;;;12.70;99.90;;;12.88;84.96;99356.31;5373071;26;20632;-78
2024/04/14 03:28:22;;;;;;;7.63;6.20;;;12.70;99.90;;;12.86;84.72;99357.41;5364404;26;21188;-74
2024/04/14 03:30:48;;;;;;;9.70;6.27;;;12.70;99.90;;;12.89;84.33;99357.16;5408082;26;20539;-76
2024/04/14 03:33:14;;;;;;;8.07;6.20;;;12.70;99.90;;;12.90;84.39;99358.84;5336838;26;20478;-76
2024/04/14 03:35:40;;;;;;;8.00;5.97;;;12.70;99.90;;;12.90;84.58;99356.22;5361379;26;20474;-76
2024/04/14 03:38:08;;;;;;;9.17;6.40;;;12.70;99.90;;;12.89;84.09;99355.38;5369468;26;20240;-78
2024/04/14 03:40:34;;;;;;;8.70;6.43;;;12.70;99.90;;;12.91;83.75;99352.59;5375268;26;20979;-76
2024/04/14 03:42:59;;;;;;;12.40;6.00;;;12.60;99.90;;;12.91;83.22;99348.16;5368706;26;21140;-79
2024/04/14 03:45:25;;;;;;;8.70;5.90;;;12.70;99.90;;;12.88;83.64;99345.78;5376081;26;20286;-77
2024/04/14 03:47:54;;;;;;;8.30;6.00;;;12.60;99.90;;;12.89;83.23;99347.47;5363538;26;20266;-76
2024/04/14 03:50:20;;;;;;;7.43;5.60;;;12.60;99.90;;;12.86;82.99;99342.44;5368394;26;20241;-76
2024/04/14 03:52:46;;;;;;;6.83;5.37;;;12.60;99.90;;;12.85;82.39;99351.28;5341561;26;20494;-76
2024/04/14 03:55:12;;;;;;;7.47;5.97;;;12.60;99.90;;;12.83;82.62;99352.38;5351255;26;20482;-77
2024/04/14 03:57:38;;;;;;;7.17;5.80;;;12.60;99.90;;;12.82;82.81;99355.97;5379170;26;20326;-77
2024/04/14 04:00:05;;;;;;;6.73;5.50;;;12.60;99.90;;;12.81;82.24;99370.13;5370438;26;20531;-77
2024/04/14 04:02:31;;;;;;;10.00;6.03;;;12.60;99.90;;;12.80;82.31;99361.38;5368940;26;20276;-77
2024/04/14 04:04:56;;;;;;;8.10;6.10;;;12.50;99.90;;;12.77;82.40;99359.00;5378321;26;20542;-76
2024/04/14 04:07:22;;;;;;;6.77;5.40;;;12.50;99.90;;;12.74;82.71;99357.44;5366620;26;20774;-79
2024/04/14 04:09:50;;;;;;;7.13;5.70;;;12.50;99.90;;;12.71;82.67;99357.69;5372506;26;20330;-75
2024/04/14 04:12:16;;;;;;;8.77;6.20;;;12.50;99.90;;;12.73;82.33;99366.28;5350961;26;20252;-79
2024/04/14 04:14:42;;;;;;;7.70;6.30;;;14.10;99.90;;;12.73;82.30;99368.91;5362302;26;20489;-78
2024/04/14 04:17:08;;;;;;;8.47;5.77;;;13.20;99.90;;;12.73;82.52;99361.00;5369416;26;20578;-78
2024/04/14 04:19:34;;;;;;;6.80;5.30;;;12.40;99.90;;;12.76;81.97;99365.19;5378066;26;20251;-76
2024/04/14 04:21:59;;;;;;;6.20;5.33;;;12.50;99.90;;;12.75;82.01;99363.53;5360803;26;20474;-72
2024/04/14 04:24:27;;;;;;;7.07;5.43;;;12.40;99.90;;;12.74;81.68;99370.63;5386365;26;20277;-76
2024/04/14 04:26:53;;;;;;;8.60;5.33;;;12.40;99.90;;;12.72;81.69;99372.53;5376227;26;20315;-75
2024/04/14 04:29:19;;;;;;;7.50;5.80;;;12.40;99.90;;;12.74;81.33;99375.06;5369077;26;20558;-75
2024/04/14 04:31:44;;;;;;;9.37;5.73;;;12.40;99.90;;;12.66;81.34;99370.38;5357858;26;20252;-77
2024/04/14 04:34:10;;;;;;;7.77;6.27;;;12.40;99.90;;;12.60;81.42;99384.03;5343795;26;20279;-77
2024/04/14 04:36:36;;;;;;;6.90;5.53;;;12.40;99.90;;;12.57;82.15;99386.91;5391857;26;20474;-77
2024/04/14 04:39:03;;;;;;;7.63;5.77;;;12.40;99.90;;;12.55;82.30;99387.97;5373573;26;20243;-76
2024/04/14 04:41:30;;;;;;;7.50;5.60;;;12.40;99.90;;;12.54;82.08;99384.50;5370926;26;20291;-77
2024/04/14 04:43:57;;;;;;;7.77;5.80;;;12.30;99.90;;;12.54;82.11;99384.50;5373138;26;20466;-77
2024/04/14 04:46:23;;;;;;;7.50;5.70;;;12.30;99.90;;;12.56;82.09;99377.34;5364961;26;20486;-77
2024/04/14 04:48:51;;;;;;;6.90;5.60;;;12.30;99.90;;;12.58;82.16;99379.84;5372145;26;20536;-77
2024/04/14 04:51:18;;;;;;;7.40;5.90;;;12.30;99.90;;;12.58;81.99;99379.84;5379624;26;20462;-72
2024/04/14 04:53:44;;;;;;;7.60;5.93;;;12.30;99.90;;;12.64;82.02;99384.63;5397251;26;20511;-77
2024/04/14 04:56:10;;;;;;;7.57;5.60;;;13.70;99.90;;;12.65;81.92;99389.78;5374641;26;20478;-78
2024/04/14 04:58:35;;;;;;;8.00;6.30;;;12.30;99.90;;;12.68;81.85;99383.44;5370857;26;20264;-75
2024/04/14 05:01:02;;;;;;;6.60;5.40;;;12.30;99.90;;;12.64;82.02;99382.00;5336255;26;20255;-77
2024/04/14 05:03:28;;;;;;;8.43;6.13;;;12.30;99.90;;;12.68;81.65;99379.00;5370168;26;20283;-77
2024/04/14 05:05:58;;;;;;;7.70;5.63;;;12.40;99.90;;;12.69;81.39;99379.84;5356618;26;20454;-77
2024/04/14 05:08:25;;;;;;;8.97;5.93;;;12.40;99.90;;;12.73;81.91;99376.00;5373172;26;20486;-77
2024/04/14 05:10:56;;;;;;;7.50;5.97;;;12.40;99.90;;;12.91;82.77;99381.59;5346437;26;20517;-76
2024/04/14 05:13:23;;;;;;;7.60;5.57;;;12.50;99.90;;;13.02;82.58;99378.94;5380380;26;20474;-77
2024/04/14 05:15:49;;;;;;;8.80;6.20;;;12.60;99.90;;;13.09;81.07;99381.94;5363944;26;20479;-76
2024/04/14 05:18:15;;;;;;;10.33;6.20;;;12.60;99.90;;;13.13;80.57;99391.25;5363288;26;20639;-76
2024/04/14 05:20:41;;;;;;;8.43;5.50;;;12.70;99.90;;;13.19;80.13;99386.31;5361349;26;20997;-77
2024/04/14 05:23:07;;;;;;;7.17;5.63;;;12.80;99.90;;;13.27;79.96;99384.88;5357637;26;20319;-75
2024/04/14 05:25:34;;;;;;;7.70;6.40;;;12.80;99.90;;;13.39;79.48;99394.44;5344258;26;20251;-75
2024/04/14 05:28:00;;;;;;;11.37;6.00;;;13.00;99.90;;;13.53;79.75;99385.41;5364404;26;20534;-75
2024/04/14 05:30:26;;;;;;;7.90;5.90;;;13.00;99.90;;;13.61;78.69;99390.88;5362627;26;20461;-73
2024/04/14 05:32:52;;;;;;;8.03;5.63;;;13.00;99.90;;;13.78;78.26;99392.13;5370858;26;20313;-76
2024/04/14 05:35:17;;;;;;;9.00;6.00;;;13.10;99.90;;;13.97;78.10;99388.78;5364402;26;20772;-75
2024/04/14 05:37:43;;;;;;;7.27;5.87;;;13.20;99.90;;;14.19;78.14;99404.47;5366952;26;20474;-75
2024/04/14 05:40:10;;;;;;;7.97;6.27;;;13.40;99.90;;;14.48;77.89;99398.50;5367518;26;20293;-74
2024/04/14 05:42:38;;;;;;;8.70;5.27;;;13.50;99.90;;;14.75;75.97;99398.78;5342350;26;20251;-75
2024/04/14 05:45:07;;;;;;;8.80;6.10;;;13.70;99.90;;;14.91;74.96;99400.06;5369829;26;20470;-75
2024/04/14 05:47:33;;;;;;;8.00;5.90;;;13.90;99.90;;;15.13;75.08;99402.50;5376661;26;20615;-77
2024/04/14 05:49:59;;;;;;;10.13;6.40;;;14.00;99.90;;;15.34;74.06;99406.84;5356074;26;20684;-74
2024/04/14 05:52:25;;;;;;;9.70;5.77;;;14.20;99.90;;;15.59;73.75;99398.34;5342979;26;22624;-73
2024/04/14 05:54:50;;;;;;;10.40;6.30;;;14.40;99.90;;;15.87;72.43;99391.38;5365526;26;20287;-76
2024/04/14 05:57:16;;;;;;;12.80;5.50;;;15.60;99.90;;;16.13;71.35;99391.59;5371462;26;20286;-75
2024/04/14 05:59:45;;;;;;;6.13;5.03;;;15.00;99.90;;;16.39;70.49;99398.91;5353548;26;20244;-75
2024/04/14 06:02:11;;;;;;;10.10;5.90;;;15.20;99.90;;;16.61;70.13;99400.38;5373434;26;20283;-74
2024/04/14 06:04:37;;;;;;;8.70;5.50;;;15.40;99.90;;;16.81;68.90;99403.81;5359556;26;20482;-72
2024/04/14 06:07:03;;;;;;;9.73;5.50;;;16.80;99.90;;;16.91;68.24;99412.56;5358755;26;20464;-75
2024/04/14 06:09:29;;;;;;;8.60;5.53;;;15.80;99.90;;;17.03;67.52;99408.72;5356033;26;20256;-75
2024/04/14 06:11:55;;;;;;;10.30;6.00;;;16.00;99.90;;;17.01;67.08;99402.72;5396683;26;20466;-75
2024/04/14 06:14:22;;;;;;;8.10;5.70;;;16.10;99.90;;;16.94;66.26;99401.66;5364246;26;20346;-75
2024/04/14 06:16:48;;;;;;;7.60;5.70;;;16.20;99.90;;;16.90;66.62;99398.47;5368772;26;20248;-75
2024/04/14 06:19:14;;;;;;;7.73;5.67;;;16.30;99.90;;;16.93;67.02;99405.28;5361847;26;20685;-75
2024/04/14 06:21:40;;;;;;;7.20;5.53;;;16.30;99.90;;;16.97;67.48;99400.53;5355837;26;20299;-75
2024/04/14 06:24:06;;;;;;;8.50;5.67;;;16.40;99.90;;;17.12;67.74;99407.00;5376761;26;20458;-75
2024/04/14 06:26:32;;;;;;;12.17;6.30;;;16.40;99.90;;;17.27;67.37;99404.66;5346096;26;20310;-74
2024/04/14 06:29:00;;;;;;;8.57;6.47;;;16.50;99.90;;;17.42;67.26;99403.13;5335457;26;20744;-75
2024/04/14 06:31:25;;;;;;;8.00;5.70;;;16.60;99.90;;;17.71;67.17;99397.59;5370857;26;20325;-74
2024/04/14 06:33:51;;;;;;;10.33;5.77;;;16.80;99.90;;;18.01;66.44;99399.03;5367065;26;20493;-75
2024/04/14 06:36:17;;;;;;;10.40;7.00;;;17.00;99.90;;;18.32;65.68;99395.91;5366221;26;20245;-74
2024/04/14 06:38:44;;;;;;;10.03;6.53;;;17.20;99.90;;;18.68;65.09;99399.22;5366344;26;20332;-74
2024/04/14 06:41:13;;;;;;;7.43;5.60;;;17.50;99.90;;;18.94;64.69;99393.88;5376409;26;20306;-74
2024/04/14 06:43:39;;;;;;;7.20;5.07;;;17.80;99.90;;;19.12;63.99;99392.94;5364410;26;20462;-74
2024/04/14 06:46:05;;;;;;;6.70;5.20;;;18.00;99.90;;;19.28;64.13;99392.13;5367705;26;20478;-74
2024/04/14 06:48:31;;;;;;;9.70;6.37;;;18.20;99.90;;;19.39;64.31;99389.16;5369043;26;20288;-74
2024/04/14 06:50:57;;;;;;;12.50;6.70;;;18.40;99.90;;;19.37;63.07;99396.47;5365030;26;20467;-70
2024/04/14 06:53:23;;;;;;;10.97;6.43;;;18.60;99.90;;;19.25;64.14;99405.78;5368134;26;21310;-74
2024/04/14 06:55:53;;;;;;;10.07;7.17;;;18.60;99.90;;;19.22;64.53;99399.78;5357493;26;20314;-75
2024/04/14 06:58:19;;;;;;;8.63;6.10;;;18.00;99.90;;;19.21;63.82;99397.28;5342047;26;20245;-68
2024/04/14 07:00:45;;;;;;;6.80;4.73;;;18.70;99.90;;;19.24;64.32;99401.44;5396661;26;20582;-75
2024/04/14 07:03:14;;;;;;;6.50;4.90;;;18.70;99.90;;;19.16;65.08;99394.25;5369739;26;20561;-74
2024/04/14 07:05:40;;;;;;;7.50;5.10;;;18.70;99.90;;;19.15;65.88;99393.44;5363362;26;20257;-75
2024/04/14 07:08:06;;;;;;;6.57;4.50;;;18.60;99.90;;;19.26;65.75;99396.78;5357674;26;20845;-75
2024/04/14 07:10:32;;;;;;;8.03;4.70;;;18.60;99.90;;;19.36;65.01;99398.31;5331518;26;20244;-72
2024/04/14 07:12:58;;;;;;;5.80;4.30;;;18.70;99.90;;;19.47;64.89;99397.16;5350264;26;20553;-70
2024/04/14 07:15:23;;;;;;;6.73;4.53;;;18.70;99.90;;;19.57;65.09;99397.00;5352423;26;21337;-73
2024/04/14 07:17:49;;;;;;;11.20;4.80;;;18.80;99.90;;;19.70;64.12;99396.53;5349953;26;20320;-73
2024/04/14 07:20:31;;;;;;;7.20;4.60;;;18.80;99.90;;;20.00;63.42;99403.03;5360920;26;20260;-71
2024/04/14 07:22:57;;;;;;;6.67;4.37;;;19.00;99.90;;;20.20;63.14;99404.31;5345096;26;20592;-71
2024/04/14 07:25:23;;;;;;;7.00;4.67;;;19.20;99.90;;;20.33;61.68;99401.97;5346459;26;20494;-71
2024/04/14 07:27:48;;;;;;;6.40;4.83;;;19.30;99.90;;;20.30;61.00;99398.78;5381271;26;20244;-74
2024/04/14 07:30:14;;;;;;;6.50;4.30;;;19.40;99.90;;;20.59;60.71;99399.09;5360224;26;20252;-67
2024/04/14 07:32:41;;;;;;;8.63;4.30;;;19.60;99.90;;;20.65;60.24;99400.25;5360762;26;20291;-70
2024/04/14 07:35:10;;;;;;;6.87;4.40;;;19.70;99.90;;;20.64;60.03;99401.25;5361614;26;20248;-70
2024/04/14 07:37:36;;;;;;;5.20;4.30;;;19.80;99.90;;;20.82;60.10;99401.84;5337663;26;20464;-70
2024/04/14 07:40:02;;;;;;;7.60;4.40;;;19.90;99.90;;;21.21;58.74;99394.78;5384806;26;20535;-71
2024/04/14 07:42:27;;;;;;;5.80;4.40;;;20.10;99.90;;;21.46;58.26;99396.31;5362790;26;20905;-70
2024/04/14 07:44:53;;;;;;;6.50;4.00;;;20.40;99.90;;;21.47;56.95;99398.00;5371339;26;20838;-70
2024/04/14 07:47:19;;;;;;;6.27;3.67;;;20.50;99.90;;;21.48;58.02;99396.16;5364104;26;20291;-69
2024/04/14 07:49:45;;;;;;;5.73;3.83;;;20.60;99.90;;;21.79;57.20;99398.75;5365912;26;20491;-70
2024/04/14 07:52:11;;;;;;;5.40;3.83;;;21.40;99.90;;;22.13;56.02;99390.25;5342905;26;20240;-71
2024/04/14 07:54:37;;;;;;;5.27;3.43;;;21.00;99.90;;;22.36;56.04;99397.41;5383488;26;20303;-69
2024/04/14 07:57:05;;;;;;;4.70;3.47;;;21.20;99.90;;;22.42;54.88;99394.84;5367049;26;20294;-70
2024/04/14 07:59:32;;;;;;;6.40;3.60;;;21.40;99.90;;;22.37;55.23;99391.03;5379242;26;20320;-70
2024/04/14 08:01:58;;;;;;;5.43;3.90;;;21.50;99.90;;;21.96;56.83;99389.56;5370689;26;20556;-62
2024/04/14 08:04:23;;;;;;;7.37;4.23;;;22.30;99.90;;;22.13;56.25;99389.41;5373725;26;20476;-70
2024/04/14 08:06:49;;;;;;;4.93;3.90;;;21.40;99.90;;;22.25;55.43;99381.78;5379963;26;20568;-71
2024/04/14 08:09:15;;;;;;;5.97;3.67;;;21.50;99.90;;;22.05;55.79;99381.47;5381081;26;20240;-71
2024/04/14 08:11:41;;;;;;;5.10;3.70;;;21.40;99.90;;;22.20;55.84;99379.69;5368674;26;21121;-69
2024/04/14 08:14:08;;;;;;;5.83;4.70;;;21.40;99.90;;;21.98;56.54;99379.53;5373492;26;20813;-70
2024/04/14 08:16:35;;;;;;;7.17;4.93;;;21.40;99.90;;;21.17;58.97;99386.28;5360523;26;20317;-70
2024/04/14 08:19:01;;;;;;;6.70;4.43;;;21.20;99.90;;;21.03;59.57;99379.88;5332568;26;20548;-69
2024/04/14 08:21:27;;;;;;;6.63;4.27;;;20.90;99.90;;;20.97;59.69;99379.75;5368151;26;20533;-70
2024/04/14 08:23:53;;;;;;;6.70;4.57;;;21.00;99.90;;;21.05;59.39;99382.34;5380218;26;20279;-71
2024/04/14 08:26:19;;;;;;;8.70;4.17;;;20.60;99.90;;;21.11;59.02;99378.16;5375551;26;21032;-69
2024/04/14 08:28:45;;;;;;;11.83;4.87;;;20.60;99.90;;;20.83;58.37;99381.28;5366013;26;20295;-70
2024/04/14 08:31:11;;;;;;;7.50;5.60;;;20.50;99.90;;;20.72;58.86;99381.69;5370874;26;20309;-67
2024/04/14 08:33:37;;;;;;;6.33;5.60;;;20.40;99.90;;;20.88;57.82;99384.28;5370710;26;20530;-71
2024/04/14 08:36:04;;;;;;;9.33;5.10;;;20.40;99.90;;;21.09;57.28;99381.03;5363434;26;20249;-70
2024/04/14 08:38:30;;;;;;;5.90;4.33;;;20.50;99.90;;;21.37;55.85;99378.66;5397480;26;20518;-71
2024/04/14 08:40:57;;;;;;;5.17;3.20;;;20.90;99.90;;;21.81;54.87;99379.84;5348320;26;20969;-70
2024/04/14 08:43:23;;;;;;;5.87;4.10;;;20.80;99.90;;;21.38;54.34;99375.00;5365394;26;20469;-69
2024/04/14 08:45:50;;;;;;;6.17;3.63;;;20.90;99.90;;;21.45;56.39;99370.59;5342639;26;20466;-68
2024/04/14 08:48:18;;;;;;;10.50;3.97;;;20.90;99.90;;;21.77;53.10;99368.69;5347452;26;20270;-71
2024/04/14 08:50:46;;;;;;;4.63;3.37;;;21.00;99.90;;;22.05;52.57;99379.63;5373043;26;20466;-71
2024/04/14 08:53:15;;;;;;;5.40;3.40;;;21.20;99.90;;;22.15;51.51;99380.19;5363291;26;20483;-69
2024/04/14 08:55:42;;;;;;;4.43;2.73;;;21.30;99.90;;;22.11;49.58;99380.75;5344857;26;20947;-70
2024/04/14 08:58:09;;;;;;;6.10;3.00;;;21.40;99.90;;;21.72;48.80;99377.25;5374687;26;20633;-68
2024/04/14 09:00:37;;;;;;;4.93;3.00;;;21.30;99.90;;;21.55;49.41;99382.91;5362205;26;20482;-70
2024/04/14 09:03:04;;;;;;;5.93;3.10;;;21.20;99.90;;;21.69;49.77;99376.75;5373572;26;20462;-70
2024/04/14 09:05:34;;;;;;;7.50;3.37;;;21.20;99.90;;;21.88;50.02;99367.41;5369437;26;20486;-70
2024/04/14 09:08:00;;;;;;;4.70;2.90;;;21.30;99.90;;;22.11;50.08;99368.19;5403714;26;20474;-70
2024/04/14 09:10:26;;;;;;;4.20;2.57;;;21.70;99.90;;;22.34;48.71;99378.03;5366508;26;20484;-69
2024/04/14 09:12:55;;;;;;;4.40;2.97;;;21.60;99.90;;;22.04;48.56;99379.81;5372699;26;20462;-70
2024/04/14 09:15:21;;;;;;;4.97;3.10;;;21.50;99.90;;;22.28;47.95;99373.41;5391343;26;20494;-69
2024/04/14 09:17:47;;;;;;;5.73;2.93;;;21.60;99.90;;;22.35;47.74;99372.50;5374785;26;20478;-69
2024/04/14 09:20:13;;;;;;;4.43;3.23;;;21.70;99.90;;;22.21;46.49;99368.78;5376713;26;20573;-68
2024/04/14 09:22:39;;;;;;;6.53;2.90;;;21.70;99.90;;;22.32;47.40;99370.19;5357606;26;20482;-70
2024/04/14 09:25:08;;;;;;;4.70;2.80;;;21.70;99.90;;;21.70;47.31;99376.59;5378009;26;20243;-70
2024/04/14 09:27:34;;;;;;;4.90;3.00;;;21.30;99.90;;;21.73;48.38;99370.06;5359568;26;20360;-69
2024/04/14 09:30:19;;;;;;;4.13;2.70;;;21.40;99.90;;;21.52;48.31;99373.41;5349900;26;20482;-67
2024/04/14 09:32:46;;;;;;;4.23;3.00;;;21.20;99.90;;;21.87;47.79;99365.75;5363985;26;20468;-70
2024/04/14 09:35:13;;;;;;;4.37;3.33;;;21.60;99.90;;;22.25;46.98;99365.72;5370135;26;20474;-69
2024/04/14 09:37:40;;;;;;;6.93;3.67;;;21.40;99.90;;;21.77;47.25;99375.88;5364559;26;21871;-70
2024/04/14 09:40:10;;;;;;;4.70;3.30;;;21.50;99.90;;;21.83;47.45;99369.81;5374201;26;20482;-70
2024/04/14 09:42:37;;;;;;;5.40;3.30;;;21.40;99.90;;;22.17;46.62;99367.50;5343852;26;20470;-70
2024/04/14 09:45:05;;;;;;;6.60;3.10;;;21.50;99.90;;;22.05;46.74;99371.59;5378097;26;20480;-68
2024/04/14 09:47:32;;;;;;;7.47;3.30;;;21.60;99.90;;;22.19;46.77;99372.66;5341493;26;21037;-71
2024/04/14 09:49:58;;;;;;;7.63;2.90;;;21.60;99.90;;;22.34;47.42;99364.63;5385338;26;20530;-68
2024/04/14 09:52:28;;;;;;;4.90;2.90;;;21.60;99.90;;;22.89;47.12;99379.38;5365345;26;20859;-71
2024/04/14 09:54:56;;;;;;;5.27;3.10;;;21.80;99.90;;;22.77;46.37;99368.31;5367117;26;20480;-70
2024/04/14 09:57:22;;;;;;;4.37;2.53;;;22.10;99.90;;;23.11;44.93;99367.72;5365814;26;21085;-68
2024/04/14 09:59:47;;;;;;;4.23;2.70;;;22.20;99.90;;;23.43;43.88;99362.88;5373441;26;20533;-69
2024/04/14 10:02:28;;;;;;;5.40;2.60;;;22.50;99.90;;;23.76;43.02;99362.34;5374359;26;20275;-69
2024/04/14 10:04:57;;;;;;;7.80;2.80;;;23.60;99.90;;;24.03;44.61;99360.72;5371071;26;20276;-70
2024/04/14 10:07:23;;;;;;;4.40;2.80;;;24.10;99.90;;;24.30;43.70;99359.03;5332831;26;20510;-70
2024/04/14 10:09:49;;;;;;;5.07;3.03;;;23.20;99.90;;;24.66;43.61;99353.47;5377412;26;20466;-69
2024/04/14 10:12:19;;;;;;;4.70;3.30;;;23.50;99.90;;;24.68;44.03;99348.72;5368060;26;20474;-67
2024/04/14 10:14:47;;;;;;;5.40;4.57;;;23.70;99.90;;;24.88;42.95;99354.19;5377357;26;20299;-70